Albany, Oregon
Current Conditions -  °F | °C
As of 8:15 AM on Thursday 23 Oct 2014 (Local Time) from KCVO Reporting Station
Broken Clouds Broken Clouds  
Wind Chill: 57°   Ceiling: 7000
Heat Index: 57°   Visibility: 10mi
Dew Point: 54°   Wind: 8mph
Humidity: 88%   Direction: 190°S
Pressure: 29.85"   Gusts: NA
Location:  44.64°N, 123.1°W
Report Text: KCVO 231515Z AUTO 19007KT 10SM FEW031 SCT060 BKN070 14/12 A2985 RMK AO1 P0001
Loading
Personal Weather Stations






























Interactive Weather Map
Tropical Storm Tracking
New forecast layout! Learn more

10-Day Weather Forecast

Advertisements
Track Severe Weather on mobile